Time;durP1;ratioP1;P1;durP2;ratioP2;P2;SDS_P1;SDS_P2;PMS_P1;PMS_P2;Temp;Humidity;BMP_temperature;BMP_pressure;BME280_temperature;BME280_humidity;BME280_pressure;Samples;Min_cycle;Max_cycle;Signal;HPM_P1;HPM_P2
2022/03/16 00:00:23;;;;;;;59.53;26.65;;;;;;;6.52;50.01;101986.81;5052668;28;20045;-76
2022/03/16 00:02:49;;;;;;;62.22;29.92;;;;;;;6.46;49.86;101981.72;5052897;28;20500;-75
2022/03/16 00:05:16;;;;;;;63.38;28.90;;;;;;;6.45;50.13;101980.84;5052717;28;20426;-75
2022/03/16 00:07:42;;;;;;;60.47;28.08;;;;;;;6.43;49.83;101972.03;5051683;28;20036;-76
2022/03/16 00:10:09;;;;;;;58.72;26.88;;;;;;;6.39;49.67;101970.41;5052614;28;20040;-75
2022/03/16 00:12:39;;;;;;;59.67;26.75;;;;;;;6.40;49.88;101966.81;5052271;28;20493;-76
2022/03/16 00:15:05;;;;;;;51.17;23.60;;;;;;;6.36;49.80;101965.22;5034703;28;20401;-75
2022/03/16 00:17:30;;;;;;;51.78;24.42;;;;;;;6.27;50.10;101976.28;5052066;28;20533;-75
2022/03/16 00:19:56;;;;;;;51.88;24.88;;;;;;;6.25;50.01;101964.81;5051868;28;20081;-75
2022/03/16 00:22:21;;;;;;;56.65;25.77;;;;;;;6.31;50.28;101964.53;5052251;28;20029;-76
2022/03/16 00:24:47;;;;;;;62.40;25.80;;;;;;;6.27;50.38;101954.06;5052282;28;20063;-75
2022/03/16 00:27:13;;;;;;;53.72;23.65;;;;;;;6.29;50.31;101963.75;5052446;28;20032;-76
2022/03/16 00:29:38;;;;;;;51.83;25.67;;;;;;;6.30;50.00;101953.94;5052350;28;20029;-77
2022/03/16 00:32:04;;;;;;;58.00;25.08;;;;;;;6.26;50.34;101953.19;5052253;28;20083;-75
2022/03/16 00:34:31;;;;;;;46.03;24.65;;;;;;;6.15;50.27;101963.44;5051907;28;20086;-75
2022/03/16 00:36:56;;;;;;;50.42;24.90;;;;;;;6.12;50.21;101960.91;5051925;28;20100;-75
2022/03/16 00:39:22;;;;;;;51.55;23.58;;;;;;;6.13;50.41;101959.09;5051887;28;20179;-75
2022/03/16 00:41:47;;;;;;;38.85;21.50;;;;;;;6.11;50.43;101953.84;5051879;28;20564;-75
2022/03/16 00:44:13;;;;;;;48.95;24.02;;;;;;;6.08;50.58;101951.31;5051910;28;20035;-75
2022/03/16 00:46:38;;;;;;;49.63;23.80;;;;;;;6.05;50.34;101938.06;5051879;28;20462;-75
2022/03/16 00:49:04;;;;;;;49.80;22.25;;;;;;;5.87;51.11;101934.34;5051784;28;20348;-75
2022/03/16 00:51:30;;;;;;;41.17;22.90;;;;;;;5.82;51.28;101935.44;5052204;28;20348;-76
2022/03/16 00:53:55;;;;;;;41.05;22.42;;;;;;;5.78;51.53;101933.84;5052037;28;20036;-75
2022/03/16 00:56:21;;;;;;;58.13;24.42;;;;;;;5.73;51.67;101919.78;5033938;28;20036;-75
2022/03/16 00:58:47;;;;;;;49.45;23.90;;;;;;;5.57;51.87;101910.66;5051836;28;20192;-74
2022/03/16 01:01:12;;;;;;;46.22;22.17;;;;;;;5.17;52.80;101922.91;5051850;28;20485;-75
2022/03/16 01:03:41;;;;;;;47.28;22.67;;;;;;;4.93;53.66;101910.50;5051852;28;20040;-75
2022/03/16 01:06:15;;;;;;;47.00;22.25;;;;;;;5.12;53.41;101900.00;5051725;28;20104;-75
2022/03/16 01:08:44;;;;;;;49.50;21.15;;;;;;;5.23;53.27;101904.00;5051951;28;20021;-75
2022/03/16 01:11:11;;;;;;;45.08;21.77;;;;;;;5.16;53.43;101902.50;5033885;28;20025;-75
2022/03/16 01:13:37;;;;;;;46.30;20.50;;;;;;;5.17;53.54;101903.38;5051751;28;20503;-75
2022/03/16 01:16:03;;;;;;;43.88;20.92;;;;;;;5.21;53.47;101889.00;5033752;28;20095;-76
2022/03/16 01:18:28;;;;;;;46.80;20.50;;;;;;;5.25;53.13;101899.50;5051948;28;20459;-75
2022/03/16 01:20:54;;;;;;;40.85;20.40;;;;;;;5.28;53.44;101901.16;5056153;28;20028;-75
2022/03/16 01:23:19;;;;;;;39.60;21.17;;;;;;;5.19;53.47;101894.41;5057072;28;20108;-74
2022/03/16 01:25:45;;;;;;;40.78;21.02;;;;;;;5.24;53.28;101879.06;5055572;28;20028;-74
2022/03/16 01:28:10;;;;;;;40.00;20.27;;;;;;;5.28;53.21;101875.38;5037581;28;20496;-74
2022/03/16 01:30:36;;;;;;;41.00;21.88;;;;;;;5.14;53.43;101879.47;5055497;28;20028;-75
2022/03/16 01:33:01;;;;;;;36.72;20.05;;;;;;;5.07;53.92;101870.00;5055539;28;20063;-75
2022/03/16 01:35:27;;;;;;;42.92;19.98;;;;;;;4.95;54.38;101855.34;5038834;28;20102;-74
2022/03/16 01:37:53;;;;;;;37.78;19.80;;;;;;;4.89;54.35;101858.25;5037951;28;20029;-74
2022/03/16 01:40:18;;;;;;;41.72;19.58;;;;;;;4.88;54.37;101848.50;5055376;28;20025;-75
2022/03/16 01:42:44;;;;;;;44.40;19.33;;;;;;;5.03;54.03;101850.56;5037361;28;20021;-75
2022/03/16 01:45:09;;;;;;;39.63;19.63;;;;;;;5.05;53.85;101850.50;5055459;28;20443;-75
2022/03/16 01:47:35;;;;;;;45.85;19.42;;;;;;;5.04;54.26;101838.13;5037263;28;20028;-75
2022/03/16 01:50:01;;;;;;;40.13;19.35;;;;;;;5.15;53.97;101838.56;5055399;28;20032;-75
2022/03/16 01:52:29;;;;;;;38.00;19.52;;;;;;;5.30;53.51;101838.81;5037238;28;20068;-75
2022/03/16 01:54:55;;;;;;;40.08;20.83;;;;;;;5.45;53.19;101830.19;5055289;28;20032;-75
2022/03/16 01:57:22;;;;;;;42.33;19.73;;;;;;;5.53;53.23;101831.69;5055153;28;20049;-75
2022/03/16 01:59:48;;;;;;;48.63;19.48;;;;;;;5.73;52.88;101839.72;5055134;28;20024;-76
2022/03/16 02:02:14;;;;;;;56.67;18.88;;;;;;;5.89;52.29;101827.50;5055258;28;20029;-75
2022/03/16 02:04:41;;;;;;;41.53;17.80;;;;;;;6.08;52.21;101835.59;5054942;28;20028;-75
2022/03/16 02:07:07;;;;;;;50.83;19.88;;;;;;;6.24;51.49;101837.50;5054942;28;20471;-75
2022/03/16 02:09:33;;;;;;;41.10;20.58;;;;;;;6.34;51.35;101837.97;5054699;28;20028;-74
2022/03/16 02:11:59;;;;;;;59.47;22.70;;;;;;;6.41;51.09;101824.28;5054838;28;20028;-74
2022/03/16 02:14:24;;;;;;;57.13;23.88;;;;;;;6.50;50.77;101823.84;5037206;28;20052;-74
2022/03/16 02:16:51;;;;;;;41.30;22.33;;;;;;;6.57;50.79;101822.63;5037054;28;20077;-75
2022/03/16 02:19:16;;;;;;;38.90;20.40;;;;;;;6.51;50.76;101836.25;5036958;28;20052;-75
2022/03/16 02:21:45;;;;;;;39.03;20.80;;;;;;;6.39;50.90;101820.78;5054573;28;20514;-75
2022/03/16 02:24:11;;;;;;;43.28;21.17;;;;;;;6.52;50.60;101827.31;5054684;28;20035;-75
2022/03/16 02:26:37;;;;;;;42.83;20.35;;;;;;;6.57;50.75;101819.94;5054586;28;20017;-75
2022/03/16 02:29:03;;;;;;;38.80;19.60;;;;;;;6.59;50.28;101814.53;5054581;28;20031;-75
2022/03/16 02:31:28;;;;;;;43.88;20.17;;;;;;;6.64;50.53;101808.97;5035504;28;20021;-74
2022/03/16 02:33:54;;;;;;;43.38;19.38;;;;;;;6.64;50.47;101803.63;5054221;28;20039;-75
2022/03/16 02:36:20;;;;;;;36.92;18.88;;;;;;;6.59;50.34;101819.88;5054253;28;20025;-74
2022/03/16 02:38:46;;;;;;;35.47;18.27;;;;;;;6.53;50.75;101813.03;5054178;28;20047;-74
2022/03/16 02:41:12;;;;;;;45.67;18.70;;;;;;;6.69;50.70;101801.63;5054027;28;20021;-76
2022/03/16 02:43:38;;;;;;;40.58;17.48;;;;;;;6.72;50.52;101799.69;5054404;28;20032;-75
2022/03/16 02:46:05;;;;;;;42.17;17.85;;;;;;;6.83;50.22;101793.81;5036429;28;20567;-76
2022/03/16 02:48:31;;;;;;;44.45;18.98;;;;;;;6.89;50.07;101797.06;5054252;28;20462;-74
2022/03/16 02:50:57;;;;;;;36.28;17.77;;;;;;;6.96;50.02;101790.50;5036063;28;20025;-76
2022/03/16 02:53:23;;;;;;;44.83;20.05;;;;;;;6.94;50.25;101775.47;5053970;28;20021;-75
2022/03/16 02:55:49;;;;;;;44.78;17.50;;;;;;;7.00;49.70;101786.72;5053843;28;20070;-75
2022/03/16 02:58:16;;;;;;;45.58;19.05;;;;;;;7.07;49.88;101792.63;5054445;28;20029;-74
2022/03/16 03:00:42;;;;;;;42.80;19.48;;;;;;;7.05;49.69;101778.47;5053507;28;20644;-76
2022/03/16 03:03:07;;;;;;;53.97;19.15;;;;;;;7.06;49.38;101786.41;5053747;28;20108;-75
2022/03/16 03:05:33;;;;;;;43.58;19.25;;;;;;;7.03;49.96;101788.41;5053855;28;20474;-74
2022/03/16 03:07:59;;;;;;;45.33;19.83;;;;;;;7.01;49.68;101782.22;5053848;28;20118;-75
2022/03/16 03:10:25;;;;;;;47.53;21.83;;;;;;;6.89;49.40;101772.13;5053350;28;20017;-76
2022/03/16 03:12:51;;;;;;;40.58;20.25;;;;;;;6.82;50.07;101770.72;5053907;28;20032;-75
2022/03/16 03:15:17;;;;;;;42.67;20.27;;;;;;;6.72;50.37;101764.94;5053261;28;20107;-75
2022/03/16 03:17:43;;;;;;;39.30;18.17;;;;;;;6.78;50.49;101755.75;5053359;28;20021;-75
2022/03/16 03:20:09;;;;;;;35.75;18.70;;;;;;;6.72;50.30;101742.66;5053249;28;20503;-75
2022/03/16 03:22:35;;;;;;;39.53;20.05;;;;;;;6.67;50.72;101756.22;5035452;28;20032;-75
2022/03/16 03:25:02;;;;;;;44.33;21.48;;;;;;;6.60;50.77;101754.81;5053256;28;20029;-75
2022/03/16 03:27:27;;;;;;;42.45;22.02;;;;;;;6.75;50.81;101750.53;5053309;28;20086;-75
2022/03/16 03:29:53;;;;;;;50.25;22.02;;;;;;;6.88;50.44;101754.38;5053322;28;20033;-76
2022/03/16 03:32:19;;;;;;;41.40;22.27;;;;;;;6.98;50.46;101751.16;5053326;28;20021;-75
2022/03/16 03:34:47;;;;;;;44.33;22.08;;;;;;;7.04;50.04;101755.34;5053110;28;20048;-75
2022/03/16 03:37:16;;;;;;;51.90;21.95;;;;;;;6.98;50.15;101747.59;5053213;28;20024;-75
2022/03/16 03:39:42;;;;;;;42.90;21.92;;;;;;;7.08;50.52;101736.41;5053013;28;20029;-75
2022/03/16 03:42:08;;;;;;;45.58;22.85;;;;;;;7.03;50.30;101748.28;5052965;28;20463;-75
2022/03/16 03:44:37;;;;;;;55.70;24.00;;;;;;;7.00;50.05;101737.72;5034932;28;20343;-76
2022/03/16 03:47:09;;;;;;;58.00;24.90;;;;;;;6.99;50.19;101731.50;5035074;28;20120;-75
2022/03/16 03:49:36;;;;;;;;;;;;;;;6.99;50.24;101738.66;5053540;28;20154;-74
2022/03/16 03:52:02;;;;;;;52.05;26.63;;;;;;;6.98;50.42;101720.88;5052916;28;20310;-76
2022/03/16 03:54:28;;;;;;;47.75;24.02;;;;;;;6.97;50.45;101722.66;5052895;28;20067;-76
2022/03/16 03:56:54;;;;;;;55.33;24.02;;;;;;;6.97;50.20;101716.47;5052816;28;20131;-75
2022/03/16 03:59:20;;;;;;;52.45;25.05;;;;;;;6.97;50.65;101716.47;5052784;28;20021;-75
2022/03/16 04:01:46;;;;;;;52.85;23.42;;;;;;;7.02;50.49;101719.78;5052588;28;20104;-78
2022/03/16 04:04:12;;;;;;;50.40;23.13;;;;;;;6.97;50.38;101703.09;5052659;28;20110;-75
2022/03/16 04:06:37;;;;;;;63.15;24.45;;;;;;;6.94;50.22;101706.78;5052734;28;20454;-75
2022/03/16 04:09:03;;;;;;;52.95;22.05;;;;;;;7.07;50.44;101728.44;5052569;28;20021;-75
2022/03/16 04:11:28;;;;;;;42.45;23.23;;;;;;;7.09;50.62;101724.75;5052442;28;20067;-77
2022/03/16 04:13:54;;;;;;;38.65;20.35;;;;;;;7.13;50.36;101714.75;5052485;28;20024;-75
2022/03/16 04:16:20;;;;;;;60.92;23.85;;;;;;;7.13;50.42;101722.78;5052444;28;20410;-75
2022/03/16 04:18:46;;;;;;;54.45;23.08;;;;;;;7.11;50.29;101720.19;5052412;28;20036;-77
2022/03/16 04:21:11;;;;;;;51.28;22.33;;;;;;;7.12;50.06;101719.25;5052490;28;20183;-75
2022/03/16 04:23:36;;;;;;;57.53;22.60;;;;;;;7.19;50.23;101722.47;5034869;28;20029;-76
2022/03/16 04:26:02;;;;;;;59.85;22.00;;;;;;;7.20;50.25;101713.53;5052700;28;20025;-76
2022/03/16 04:28:27;;;;;;;58.22;23.13;;;;;;;7.21;49.92;101699.22;5034986;28;20025;-78
2022/03/16 04:30:53;;;;;;;49.13;21.10;;;;;;;7.09;50.03;101707.84;5055094;28;20024;-77
2022/03/16 04:33:19;;;;;;;45.83;19.83;;;;;;;7.13;49.98;101712.94;5053283;28;20021;-75
2022/03/16 04:35:44;;;;;;;51.25;19.77;;;;;;;7.13;50.17;101718.31;5034707;28;20044;-75
2022/03/16 04:38:10;;;;;;;48.38;21.67;;;;;;;7.14;50.01;101719.19;5052566;28;20111;-78
2022/03/16 04:40:36;;;;;;;65.93;21.17;;;;;;;7.11;50.50;101722.00;5052280;28;20106;-77
2022/03/16 04:43:01;;;;;;;45.22;20.10;;;;;;;7.16;50.14;101721.75;5051961;28;20081;-76
2022/03/16 04:45:27;;;;;;;46.30;21.40;;;;;;;7.12;50.27;101715.72;5052616;28;20396;-75
2022/03/16 04:47:52;;;;;;;50.40;20.70;;;;;;;7.17;50.38;101723.50;5052411;28;20103;-77
2022/03/16 04:50:18;;;;;;;39.58;20.00;;;;;;;7.18;50.17;101712.75;5053346;28;20029;-76
2022/03/16 04:52:46;;;;;;;57.95;21.58;;;;;;;7.25;50.31;101721.31;5034186;28;20033;-77
2022/03/16 04:55:12;;;;;;;49.33;21.42;;;;;;;7.24;50.32;101723.13;5051712;28;20091;-77
2022/03/16 04:57:38;;;;;;;46.33;20.52;;;;;;;7.32;50.21;101712.03;5052150;28;20036;-76
2022/03/16 05:00:05;;;;;;;50.38;21.08;;;;;;;7.25;49.72;101706.13;5034009;28;20033;-75
2022/03/16 05:02:30;;;;;;;51.58;20.65;;;;;;;7.16;50.40;101714.59;5033421;28;20095;-75
2022/03/16 05:04:56;;;;;;;48.08;19.30;;;;;;;7.19;50.39;101711.78;5051555;28;20069;-75
2022/03/16 05:07:21;;;;;;;57.50;21.15;;;;;;;7.14;50.04;101700.44;5052667;28;20024;-76
2022/03/16 05:09:47;;;;;;;47.63;21.35;;;;;;;7.16;49.99;101711.94;5052528;28;20483;-75
2022/03/16 05:12:12;;;;;;;54.83;22.33;;;;;;;7.19;50.28;101701.06;5052342;28;20075;-77
2022/03/16 05:14:38;;;;;;;51.92;22.85;;;;;;;7.22;50.04;101695.56;5052044;28;20036;-76
2022/03/16 05:17:04;;;;;;;58.90;23.70;;;;;;;7.24;50.42;101693.69;5052797;28;20025;-77
2022/03/16 05:19:30;;;;;;;85.68;30.20;;;;;;;7.29;50.54;101691.66;5052980;28;20051;-77
2022/03/16 05:21:56;;;;;;;56.38;24.05;;;;;;;7.42;50.57;101703.47;5052542;28;20021;-81
2022/03/16 05:24:23;;;;;;;68.85;26.73;;;;;;;7.48;50.21;101697.81;5052876;28;20143;-79
2022/03/16 05:26:49;;;;;;;66.65;22.80;;;;;;;7.56;49.50;101695.59;5053366;28;20100;-80
2022/03/16 05:29:15;;;;;;;77.72;23.13;;;;;;;7.68;49.71;101697.63;5052507;28;20025;-76
2022/03/16 05:31:40;;;;;;;55.58;23.38;;;;;;;7.74;48.92;101698.22;5034210;28;20032;-77
2022/03/16 05:34:06;;;;;;;73.60;23.70;;;;;;;7.79;49.47;101690.84;5051906;28;20087;-76
2022/03/16 05:36:31;;;;;;;86.03;27.35;;;;;;;7.89;49.79;101676.03;5052192;28;20028;-76
2022/03/16 05:38:57;;;;;;;87.65;25.10;;;;;;;7.98;49.58;101691.59;5052144;28;20080;-76
2022/03/16 05:41:24;;;;;;;60.28;23.80;;;;;;;8.06;49.28;101684.88;5051620;28;20478;-75
2022/03/16 05:43:51;;;;;;;90.78;24.52;;;;;;;8.21;48.95;101691.22;5052058;28;20031;-76
2022/03/16 05:46:16;;;;;;;80.25;22.63;;;;;;;8.34;48.53;101672.69;5051597;28;20105;-75
2022/03/16 05:48:42;;;;;;;76.32;21.95;;;;;;;8.36;48.82;101658.22;5051082;28;20466;-73
2022/03/16 05:51:08;;;;;;;91.15;23.92;;;;;;;8.52;48.83;101667.16;5033206;28;20024;-78
2022/03/16 05:53:34;;;;;;;99.63;23.17;;;;;;;8.56;48.47;101668.69;5051940;28;20471;-76
2022/03/16 05:56:00;;;;;;;90.85;24.73;;;;;;;8.57;47.77;101675.78;5052164;28;20521;-77
2022/03/16 05:58:26;;;;;;;58.45;21.77;;;;;;;8.51;47.71;101680.63;5051895;28;20021;-77
2022/03/16 06:00:51;;;;;;;89.63;25.40;;;;;;;8.67;47.76;101674.34;5051545;28;20435;-76
2022/03/16 06:03:17;;;;;;;110.88;29.20;;;;;;;8.83;48.09;101685.06;5051982;28;20402;-78
2022/03/16 06:05:42;;;;;;;71.70;26.27;;;;;;;8.97;47.80;101681.56;5059035;28;20025;-79
2022/03/16 06:08:08;;;;;;;93.60;26.70;;;;;;;9.15;47.79;101683.16;5060457;28;20025;-78
2022/03/16 06:10:33;;;;;;;79.45;27.45;;;;;;;9.22;47.56;101701.53;5054947;28;20032;-77
2022/03/16 06:13:01;;;;;;;103.68;30.20;;;;;;;9.36;47.71;101684.59;5054828;28;20052;-77
2022/03/16 06:15:29;;;;;;;86.30;30.27;;;;;;;9.61;47.22;101679.47;5055065;28;20480;-79
2022/03/16 06:17:57;;;;;;;86.95;32.60;;;;;;;9.79;46.96;101681.03;5055403;28;20374;-79
2022/03/16 06:20:23;;;;;;;106.05;30.08;;;;;;;9.92;46.56;101664.16;5054916;28;20040;-78
2022/03/16 06:22:49;;;;;;;130.70;33.70;;;;;;;10.09;46.25;101672.88;5055436;28;20077;-77
2022/03/16 06:25:15;;;;;;;79.68;29.27;;;;;;;10.17;45.71;101670.63;5055277;28;20021;-78
2022/03/16 06:27:40;;;;;;;86.72;34.00;;;;;;;10.24;45.65;101671.13;5056055;28;20095;-78
2022/03/16 06:30:06;;;;;;;101.28;33.20;;;;;;;10.26;45.89;101670.06;5063951;28;20091;-78
2022/03/16 06:32:32;;;;;;;72.20;29.92;;;;;;;10.09;46.19;101658.63;5056979;28;20053;-79
2022/03/16 06:34:57;;;;;;;74.13;34.20;;;;;;;9.99;46.84;101671.75;5054511;28;20024;-79
2022/03/16 06:37:23;;;;;;;103.07;33.38;;;;;;;9.99;46.95;101665.50;5055015;28;20029;-79
2022/03/16 06:39:49;;;;;;;87.63;35.72;;;;;;;10.01;47.78;101668.97;5054409;28;20021;-77
2022/03/16 06:42:14;;;;;;;95.60;38.03;;;;;;;9.80;49.04;101663.97;5054354;28;20031;-80
2022/03/16 06:44:40;;;;;;;101.03;34.53;;;;;;;9.80;49.21;101650.53;5020250;28;20102;-77
2022/03/16 06:47:05;;;;;;;73.13;35.90;;;;;;;9.74;49.54;101652.72;5036847;28;20024;-78
2022/03/16 06:49:31;;;;;;;114.95;38.75;;;;;;;9.68;50.30;101645.91;5036343;28;20513;-77
2022/03/16 06:51:56;;;;;;;83.57;37.38;;;;;;;9.71;50.36;101648.41;5054085;28;20025;-78
2022/03/16 06:54:22;;;;;;;79.93;37.65;;;;;;;9.62;50.66;101640.94;5053940;28;20032;-78
2022/03/16 06:56:47;;;;;;;85.60;36.00;;;;;;;9.64;50.91;101641.69;5035817;28;20029;-78
2022/03/16 06:59:13;;;;;;;79.65;37.53;;;;;;;9.69;51.04;101653.00;5053999;28;20031;-79
2022/03/16 07:01:39;;;;;;;65.85;36.45;;;;;;;9.65;50.79;101654.16;5022680;28;20495;-78
2022/03/16 07:04:05;;;;;;;87.80;39.17;;;;;;;9.80;50.85;101672.03;5034112;28;20021;-79
2022/03/16 07:06:30;;;;;;;100.25;39.05;;;;;;;9.96;50.71;101655.81;5033778;28;20475;-77
2022/03/16 07:08:56;;;;;;;85.43;36.90;;;;;;;10.00;49.99;101656.50;5015800;28;20033;-78
2022/03/16 07:11:21;;;;;;;77.97;39.38;;;;;;;9.99;50.06;101652.06;5033788;28;20021;-78
2022/03/16 07:14:30;;;;;;;89.00;37.47;;;;;;;10.02;50.09;101654.56;5015933;28;20399;-77
2022/03/16 07:16:33;;;;;;;75.63;34.05;;;;;;;10.11;49.29;101635.19;5033085;28;20112;-78
2022/03/16 07:18:59;;;;;;;67.65;32.53;;;;;;;10.01;49.02;101634.03;5033588;28;20025;-77
2022/03/16 07:21:24;;;;;;;45.50;23.63;;;;;;;10.01;47.92;101637.56;5033713;28;20033;-79
2022/03/16 07:23:50;;;;;;;55.38;23.13;;;;;;;10.01;47.55;101634.03;5033247;28;20088;-79
2022/03/16 07:26:15;;;;;;;50.72;24.77;;;;;;;10.17;47.05;101642.88;5033844;28;20025;-77
2022/03/16 07:28:41;;;;;;;42.92;24.30;;;;;;;10.27;46.72;101662.84;5033919;28;20029;-77
2022/03/16 07:31:08;;;;;;;66.32;26.30;;;;;;;10.36;46.36;101659.59;5033871;28;20498;-79
2022/03/16 07:33:34;;;;;;;63.58;26.05;;;;;;;10.46;45.99;101652.63;5033952;28;20025;-78
2022/03/16 07:36:00;;;;;;;69.13;26.88;;;;;;;10.58;45.63;101642.91;5033983;28;20044;-78
2022/03/16 07:38:25;;;;;;;45.47;21.98;;;;;;;10.63;44.61;101649.72;5016211;28;20018;-77
2022/03/16 07:40:51;;;;;;;50.40;22.52;;;;;;;10.67;44.96;101653.91;5033703;28;20045;-78
2022/03/16 07:43:16;;;;;;;69.28;24.65;;;;;;;10.81;44.94;101651.19;5039478;28;20013;-78
2022/03/16 07:45:42;;;;;;;53.47;27.80;;;;;;;10.69;46.16;101662.78;5016845;28;20455;-78
2022/03/16 07:48:07;;;;;;;58.80;24.92;;;;;;;10.56;45.93;101652.91;5015208;28;20124;-78
2022/03/16 07:50:33;;;;;;;54.03;24.08;;;;;;;10.48;45.99;101648.03;5033428;28;20045;-78
2022/03/16 07:52:59;;;;;;;45.58;24.42;;;;;;;10.47;45.81;101643.59;5033510;28;20030;-79
2022/03/16 07:55:25;;;;;;;63.35;26.52;;;;;;;10.43;46.42;101627.78;5033345;28;20022;-78
2022/03/16 07:57:52;;;;;;;55.58;28.38;;;;;;;10.53;46.82;101635.13;5033451;28;20031;-78
2022/03/16 08:00:18;;;;;;;57.30;26.83;;;;;;;10.58;47.42;101643.75;5035504;28;20495;-78
2022/03/16 08:02:44;;;;;;;51.22;24.98;;;;;;;10.53;47.14;101629.75;5035443;28;20032;-78
2022/03/16 08:05:10;;;;;;;51.17;25.02;;;;;;;10.60;47.34;101617.63;5053438;28;20029;-77
2022/03/16 08:07:36;;;;;;;54.83;26.13;;;;;;;10.48;47.78;101623.81;5055285;28;20025;-78
2022/03/16 08:10:02;;;;;;;53.20;28.63;;;;;;;10.32;48.97;101633.84;5058338;28;20452;-79
2022/03/16 08:12:28;;;;;;;67.82;31.17;;;;;;;10.43;49.25;101612.47;5052787;28;20025;-78
2022/03/16 08:14:54;;;;;;;53.67;29.95;;;;;;;10.43;49.71;101617.84;5052487;28;20532;-78
2022/03/16 08:17:19;;;;;;;59.30;28.27;;;;;;;10.31;50.53;101619.53;5052480;28;20498;-77
2022/03/16 08:19:45;;;;;;;64.60;34.13;;;;;;;10.33;50.83;101614.94;5034398;28;20025;-78
2022/03/16 08:22:11;;;;;;;58.08;30.48;;;;;;;10.42;50.69;101615.28;5052206;28;20021;-78
2022/03/16 08:24:37;;;;;;;41.92;26.13;;;;;;;10.47;50.30;101614.03;5052030;28;20040;-78
2022/03/16 08:27:03;;;;;;;41.10;24.63;;;;;;;10.62;49.65;101601.38;5052355;28;20106;-78
2022/03/16 08:29:28;;;;;;;72.50;26.92;;;;;;;10.64;48.96;101599.47;5051370;28;20106;-78
2022/03/16 08:31:54;;;;;;;51.13;26.58;;;;;;;10.68;48.47;101596.47;5052193;28;20063;-78
2022/03/16 08:34:20;;;;;;;43.20;25.73;;;;;;;10.79;47.83;101593.06;5051907;28;20055;-79
2022/03/16 08:36:46;;;;;;;50.17;24.35;;;;;;;10.82;47.13;101609.84;5052156;28;20059;-78
2022/03/16 08:39:11;;;;;;;47.72;24.05;;;;;;;10.75;47.15;101595.09;5034341;28;20520;-77
2022/03/16 08:41:37;;;;;;;46.38;20.77;;;;;;;10.76;46.60;101604.88;5052040;28;20086;-77
2022/03/16 08:44:03;;;;;;;64.72;22.08;;;;;;;10.80;46.71;101601.03;5052228;28;20035;-78
2022/03/16 08:46:29;;;;;;;52.95;31.73;;;;;;;10.64;46.92;101597.63;5051815;28;20107;-78
2022/03/16 08:48:55;;;;;;;63.60;25.73;;;;;;;10.55;47.13;101589.31;5034464;28;20079;-78
2022/03/16 08:51:20;;;;;;;68.55;25.15;;;;;;;10.57;47.59;101593.63;5051906;28;20017;-78
2022/03/16 08:53:46;;;;;;;71.20;26.50;;;;;;;10.59;48.26;101583.63;5051892;28;20025;-77
2022/03/16 08:56:13;;;;;;;48.85;24.60;;;;;;;10.69;48.39;101582.06;5052021;28;20471;-77
2022/03/16 08:58:38;;;;;;;40.20;21.40;;;;;;;10.75;47.85;101588.84;5051718;28;20036;-78
2022/03/16 09:01:05;;;;;;;55.40;23.25;;;;;;;10.87;47.82;101602.34;5051224;28;20049;-78
2022/03/16 09:03:30;;;;;;;55.90;24.33;;;;;;;11.09;47.66;101598.22;5051644;28;20048;-78
2022/03/16 09:05:56;;;;;;;51.30;22.98;;;;;;;11.02;47.74;101595.06;5051666;28;20475;-78
2022/03/16 09:08:22;;;;;;;48.85;24.10;;;;;;;11.10;48.09;101605.31;5051438;28;20462;-77
2022/03/16 09:10:48;;;;;;;35.38;19.40;;;;;;;11.18;47.20;101601.13;5051721;28;20036;-77
2022/03/16 09:13:17;;;;;;;45.90;20.20;;;;;;;11.13;46.86;101594.34;5033783;28;20025;-78
2022/03/16 09:15:44;;;;;;;41.65;20.33;;;;;;;11.20;47.66;101590.25;5052084;28;20465;-78
2022/03/16 09:18:11;;;;;;;48.08;21.92;;;;;;;11.18;47.28;101594.88;5058392;28;20025;-78
2022/03/16 09:20:37;;;;;;;48.00;22.35;;;;;;;11.25;47.37;101580.03;5053200;28;20025;-77
2022/03/16 09:23:03;;;;;;;35.78;21.17;;;;;;;11.18;47.27;101573.34;5051825;28;20044;-77
2022/03/16 09:25:28;;;;;;;40.75;21.23;;;;;;;11.14;47.60;101571.81;5033279;28;20029;-77
2022/03/16 09:27:54;;;;;;;32.42;19.83;;;;;;;11.07;48.33;101570.53;5051729;28;20063;-77
2022/03/16 09:30:23;;;;;;;34.88;20.33;;;;;;;11.03;48.12;101574.41;5051254;28;20028;-78
2022/03/16 09:32:48;;;;;;;57.25;25.60;;;;;;;11.14;48.32;101566.44;5051761;28;20029;-79
2022/03/16 09:35:14;;;;;;;46.70;25.08;;;;;;;11.19;48.22;101567.00;5051449;28;20163;-77
2022/03/16 09:37:40;;;;;;;44.90;23.80;;;;;;;11.18;48.28;101574.22;5051308;28;20021;-77
2022/03/16 09:40:07;;;;;;;40.60;20.60;;;;;;;11.09;48.43;101573.97;5052973;28;20029;-78
2022/03/16 09:42:33;;;;;;;37.15;20.13;;;;;;;11.11;48.13;101577.41;5055576;28;20017;-78
2022/03/16 09:45:02;;;;;;;38.88;20.20;;;;;;;11.15;47.77;101568.16;5057223;28;20107;-79
2022/03/16 09:47:30;;;;;;;52.80;28.60;;;;;;;11.23;47.93;101568.50;5043145;28;20037;-77
2022/03/16 09:49:56;;;;;;;39.60;19.85;;;;;;;11.24;47.79;101567.53;5055215;28;20104;-78
2022/03/16 09:52:23;;;;;;;39.08;19.00;;;;;;;11.24;46.66;101557.63;5054842;28;20151;-77
2022/03/16 09:54:48;;;;;;;37.70;18.48;;;;;;;11.29;47.12;101543.81;5055135;28;20020;-77
2022/03/16 09:57:14;;;;;;;37.92;18.40;;;;;;;11.37;47.17;101554.94;5055191;28;20465;-76
2022/03/16 09:59:39;;;;;;;42.95;20.70;;;;;;;11.37;46.66;101541.47;5037037;28;20466;-78
2022/03/16 10:02:11;;;;;;;45.58;21.88;;;;;;;11.32;46.91;101555.25;5054749;28;20025;-78
2022/03/16 10:04:38;;;;;;;38.10;17.57;;;;;;;11.28;47.06;101558.28;5054633;28;20486;-79
2022/03/16 10:07:05;;;;;;;32.80;18.00;;;;;;;11.24;46.65;101565.72;5054528;28;20378;-80
2022/03/16 10:15:10;;;;;;;55.75;19.63;;;;;;;11.47;45.95;101547.91;5055463;28;20103;-77
2022/03/16 10:17:45;;;;;;;26.00;16.02;;;;;;;11.47;45.47;101529.06;5054846;28;20494;-77
2022/03/16 10:20:34;;;;;;;47.78;19.33;;;;;;;11.49;46.98;101519.06;5055275;28;20061;-79
2022/03/16 10:23:04;;;;;;;62.22;23.45;;;;;;;11.45;48.32;101533.72;5054848;28;20479;-78
2022/03/16 10:25:36;;;;;;;44.33;22.05;;;;;;;11.39;48.69;101526.94;5056170;28;20031;-78
2022/03/16 10:28:17;;;;;;;46.83;23.33;;;;;;;11.36;49.54;101512.81;5054855;28;20025;-78
2022/03/16 10:31:05;;;;;;;51.20;24.60;;;;;;;11.38;50.04;101510.88;5055163;28;20052;-77
2022/03/16 10:33:53;;;;;;;36.35;22.02;;;;;;;11.34;49.44;101510.22;5055086;28;20024;-79
2022/03/16 10:36:20;;;;;;;30.88;20.23;;;;;;;11.45;48.39;101512.16;5037023;28;20041;-78
2022/03/16 10:38:50;;;;;;;44.00;20.38;;;;;;;11.45;48.07;101506.78;5055295;28;20079;-76
2022/03/16 10:47:17;;;;;;;37.97;22.42;;;;;;;11.23;46.93;101483.19;5055041;28;20043;-77
2022/03/16 10:49:44;;;;;;;50.30;20.13;;;;;;;11.28;47.40;101477.50;5036934;28;20059;-78
2022/03/16 10:52:17;;;;;;;33.17;18.05;;;;;;;11.28;46.79;101478.31;5055621;28;20048;-78
2022/03/16 10:54:45;;;;;;;42.13;18.42;;;;;;;11.23;47.17;101483.19;5038846;28;20037;-79
2022/03/16 10:57:13;;;;;;;35.33;18.02;;;;;;;11.19;47.70;101476.28;5053976;28;20021;-78
2022/03/16 10:59:42;;;;;;;38.20;18.60;;;;;;;11.04;48.72;101481.91;5054107;28;20047;-77
2022/03/16 11:02:13;;;;;;;42.45;20.17;;;;;;;10.96;49.22;101481.56;5053613;28;20047;-77
2022/03/16 11:04:43;;;;;;;39.13;19.90;;;;;;;10.86;49.30;101476.81;5053348;28;20064;-77
2022/03/16 11:07:09;;;;;;;36.65;20.15;;;;;;;10.92;48.35;101473.69;5053326;28;20461;-79
2022/03/16 11:09:37;;;;;;;27.40;16.45;;;;;;;11.01;48.47;101472.19;5053207;28;20056;-77
2022/03/16 11:14:48;;;;;;;31.98;17.92;;;;;;;10.93;47.90;101456.59;5053377;28;20060;-78
2022/03/16 11:17:15;;;;;;;45.38;18.67;;;;;;;10.97;48.40;101464.47;5053326;28;20021;-78
2022/03/16 11:19:46;;;;;;;29.42;17.52;;;;;;;10.89;48.53;101465.84;5053094;28;20035;-78
2022/03/16 11:22:15;;;;;;;40.22;18.02;;;;;;;10.67;48.57;101462.91;5053583;28;20100;-77
2022/03/16 11:24:47;;;;;;;43.80;18.45;;;;;;;10.72;48.51;101460.78;5058754;28;20033;-80